EZYT1L1 EGGW-EGNM
Flight info
| Callsign | EZYT1L1 |
|---|---|
| Flight time | 0h 31m |
| Altitude | 18000 |
| Route | OLNEY T420 TNT N57 DENBY |
| Aircraft | A321/M-SDE3FGHIRWY/LB1 |
Departure
| Time | 2026-05-05 20:50 |
|---|---|
| Airport | London Luton Airport (EGGW) |
Arrival
| Time | 2026-05-05 21:21 |
|---|---|
| Airport | Leeds Bradford Airport (EGNM) |
| Time | Latitude | Longitude | Altitude | Speed | Heading |
|---|---|---|---|---|---|
| 2026-05-05 20:29 | 51.87990 | -0.37869 | 525 ft | 0 kts | 128° |
| 2026-05-05 20:40 | 51.87991 | -0.37871 | 523 ft | 2 kts | 128° |
| 2026-05-05 20:40 | 51.88005 | -0.37902 | 523 ft | 2 kts | 128° |
| 2026-05-05 20:40 | 51.88018 | -0.37922 | 523 ft | 4 kts | 180° |
| 2026-05-05 20:40 | 51.88038 | -0.37909 | 523 ft | 4 kts | 218° |
| 2026-05-05 20:41 | 51.88049 | -0.37895 | 523 ft | 0 kts | 218° |
| 2026-05-05 20:43 | 51.88030 | -0.37919 | 523 ft | 8 kts | 217° |
| 2026-05-05 20:43 | 51.87985 | -0.37974 | 523 ft | 8 kts | 217° |
| 2026-05-05 20:43 | 51.87930 | -0.38012 | 523 ft | 9 kts | 189° |
| 2026-05-05 20:44 | 51.87870 | -0.38004 | 523 ft | 9 kts | 165° |
| 2026-05-05 20:44 | 51.87821 | -0.37956 | 523 ft | 8 kts | 139° |
| 2026-05-05 20:44 | 51.87791 | -0.37885 | 523 ft | 7 kts | 116° |
| 2026-05-05 20:44 | 51.87770 | -0.37811 | 523 ft | 7 kts | 116° |
| 2026-05-05 20:45 | 51.87725 | -0.37656 | 520 ft | 11 kts | 114° |
| 2026-05-05 20:45 | 51.87689 | -0.37544 | 520 ft | 10 kts | 120° |
| 2026-05-05 20:45 | 51.87649 | -0.37480 | 522 ft | 7 kts | 152° |
| 2026-05-05 20:46 | 51.87587 | -0.37457 | 523 ft | 11 kts | 179° |
| 2026-05-05 20:46 | 51.87515 | -0.37503 | 521 ft | 11 kts | 228° |
| 2026-05-05 20:46 | 51.87491 | -0.37610 | 523 ft | 9 kts | 256° |
| 2026-05-05 20:46 | 51.87475 | -0.37707 | 523 ft | 8 kts | 255° |
| 2026-05-05 20:47 | 51.87459 | -0.37802 | 522 ft | 9 kts | 255° |
| 2026-05-05 20:47 | 51.87443 | -0.37893 | 523 ft | 8 kts | 254° |
| 2026-05-05 20:47 | 51.87429 | -0.37968 | 524 ft | 6 kts | 252° |
| 2026-05-05 20:47 | 51.87410 | -0.38021 | 524 ft | 7 kts | 232° |
| 2026-05-05 20:48 | 51.87336 | -0.38094 | 522 ft | 14 kts | 206° |
| 2026-05-05 20:48 | 51.87279 | -0.38103 | 523 ft | 8 kts | 162° |
| 2026-05-05 20:48 | 51.87256 | -0.38044 | 524 ft | 6 kts | 85° |
| 2026-05-05 20:48 | 51.87260 | -0.38016 | 524 ft | 0 kts | 76° |
| 2026-05-05 20:49 | 51.87271 | -0.37953 | 524 ft | 26 kts | 74° |
| 2026-05-05 20:49 | 51.87398 | -0.37220 | 521 ft | 105 kts | 74° |
| 2026-05-05 20:49 | 51.87655 | -0.35761 | 542 ft | 160 kts | 74° |
| 2026-05-05 20:49 | 51.87971 | -0.33899 | 911 ft | 175 kts | 75° |
| 2026-05-05 20:50 | 51.88292 | -0.31962 | 1590 ft | 180 kts | 74° |
| 2026-05-05 20:50 | 51.88638 | -0.30039 | 2387 ft | 178 kts | 73° |
| 2026-05-05 20:50 | 51.89034 | -0.28050 | 2797 ft | 196 kts | 65° |
| 2026-05-05 20:50 | 51.90053 | -0.26467 | 3080 ft | 220 kts | 21° |
| 2026-05-05 20:51 | 51.91643 | -0.26413 | 3449 ft | 247 kts | 340° |
| 2026-05-05 20:51 | 51.93003 | -0.28150 | 4225 ft | 258 kts | 301° |
| 2026-05-05 20:51 | 51.93500 | -0.30929 | 5166 ft | 262 kts | 271° |
| 2026-05-05 20:51 | 51.93395 | -0.33912 | 5760 ft | 267 kts | 262° |
| 2026-05-05 20:52 | 51.93116 | -0.36892 | 5954 ft | 267 kts | 262° |
| 2026-05-05 20:52 | 51.93206 | -0.39834 | 6009 ft | 266 kts | 289° |
| 2026-05-05 20:52 | 51.94182 | -0.42345 | 6019 ft | 266 kts | 313° |
| 2026-05-05 20:52 | 51.95474 | -0.44493 | 6017 ft | 266 kts | 314° |
| 2026-05-05 20:53 | 51.96768 | -0.46636 | 6012 ft | 266 kts | 314° |
| 2026-05-05 20:53 | 51.98062 | -0.48783 | 6011 ft | 266 kts | 314° |
| 2026-05-05 20:53 | 51.99355 | -0.50934 | 6011 ft | 266 kts | 314° |
| 2026-05-05 20:53 | 52.00645 | -0.53087 | 6011 ft | 266 kts | 314° |
| 2026-05-05 20:54 | 52.01934 | -0.55245 | 6011 ft | 266 kts | 314° |
| 2026-05-05 20:54 | 52.03222 | -0.57397 | 6011 ft | 266 kts | 314° |
| 2026-05-05 20:54 | 52.04515 | -0.59554 | 6011 ft | 266 kts | 314° |
| 2026-05-05 20:54 | 52.05804 | -0.61705 | 6011 ft | 266 kts | 314° |
| 2026-05-05 20:55 | 52.07094 | -0.63858 | 6011 ft | 266 kts | 314° |
| 2026-05-05 20:55 | 52.08385 | -0.66020 | 6011 ft | 266 kts | 314° |
| 2026-05-05 20:55 | 52.09675 | -0.68186 | 6008 ft | 266 kts | 314° |
| 2026-05-05 20:55 | 52.10960 | -0.70345 | 6011 ft | 266 kts | 314° |
| 2026-05-05 20:56 | 52.12250 | -0.72508 | 6011 ft | 266 kts | 315° |
| 2026-05-05 20:56 | 52.13713 | -0.74351 | 6081 ft | 270 kts | 329° |
| 2026-05-05 20:56 | 52.15339 | -0.75930 | 6991 ft | 271 kts | 329° |
| 2026-05-05 20:56 | 52.16955 | -0.77519 | 8002 ft | 272 kts | 329° |
| 2026-05-05 20:57 | 52.18586 | -0.79132 | 8914 ft | 276 kts | 328° |
| 2026-05-05 20:57 | 52.20236 | -0.80770 | 9802 ft | 280 kts | 328° |
| 2026-05-05 20:57 | 52.21923 | -0.82444 | 10481 ft | 292 kts | 328° |
| 2026-05-05 20:57 | 52.23707 | -0.84215 | 10801 ft | 316 kts | 328° |
| 2026-05-05 20:58 | 52.25651 | -0.86145 | 11174 ft | 335 kts | 328° |
| 2026-05-05 20:58 | 52.27669 | -0.88147 | 11875 ft | 342 kts | 328° |
| 2026-05-05 20:58 | 52.29720 | -0.90183 | 12662 ft | 347 kts | 329° |
| 2026-05-05 20:58 | 52.31793 | -0.92240 | 13437 ft | 351 kts | 328° |
| 2026-05-05 20:59 | 52.33894 | -0.94329 | 14220 ft | 355 kts | 328° |
| 2026-05-05 20:59 | 52.36011 | -0.96437 | 14971 ft | 359 kts | 328° |
| 2026-05-05 20:59 | 52.38153 | -0.98579 | 15703 ft | 363 kts | 328° |
| 2026-05-05 20:59 | 52.40320 | -1.00753 | 16411 ft | 367 kts | 328° |
| 2026-05-05 21:00 | 52.42507 | -1.02946 | 17106 ft | 370 kts | 328° |
| 2026-05-05 21:00 | 52.44719 | -1.05160 | 17732 ft | 375 kts | 328° |
| 2026-05-05 21:00 | 52.46950 | -1.07391 | 17949 ft | 376 kts | 328° |
| 2026-05-05 21:00 | 52.49201 | -1.09648 | 17999 ft | 384 kts | 328° |
| 2026-05-05 21:01 | 52.51490 | -1.11951 | 18008 ft | 387 kts | 328° |
| 2026-05-05 21:01 | 52.53793 | -1.14272 | 18006 ft | 388 kts | 328° |
| 2026-05-05 21:01 | 52.56087 | -1.16585 | 18010 ft | 388 kts | 328° |
| 2026-05-05 21:01 | 52.58392 | -1.18910 | 18014 ft | 388 kts | 328° |
| 2026-05-05 21:02 | 52.60693 | -1.21233 | 18007 ft | 388 kts | 328° |
| 2026-05-05 21:02 | 52.62990 | -1.23556 | 18002 ft | 388 kts | 328° |
| 2026-05-05 21:02 | 52.65291 | -1.25889 | 18002 ft | 388 kts | 328° |
| 2026-05-05 21:02 | 52.67585 | -1.28213 | 18011 ft | 388 kts | 328° |
| 2026-05-05 21:03 | 52.69888 | -1.30544 | 18011 ft | 388 kts | 328° |
| 2026-05-05 21:03 | 52.72184 | -1.32871 | 18006 ft | 388 kts | 328° |
| 2026-05-05 21:03 | 52.74449 | -1.35175 | 18009 ft | 388 kts | 328° |
| 2026-05-05 21:03 | 52.76744 | -1.37522 | 18008 ft | 388 kts | 328° |
| 2026-05-05 21:04 | 52.79040 | -1.39872 | 18020 ft | 388 kts | 328° |
| 2026-05-05 21:04 | 52.81335 | -1.42219 | 18003 ft | 388 kts | 328° |
| 2026-05-05 21:04 | 52.83624 | -1.44562 | 18012 ft | 388 kts | 328° |
| 2026-05-05 21:04 | 52.85921 | -1.46913 | 18004 ft | 387 kts | 328° |
| 2026-05-05 21:05 | 52.88215 | -1.49261 | 18013 ft | 387 kts | 328° |
| 2026-05-05 21:05 | 52.90486 | -1.51592 | 18013 ft | 387 kts | 328° |
| 2026-05-05 21:05 | 52.92777 | -1.53951 | 18013 ft | 387 kts | 328° |
| 2026-05-05 21:05 | 52.95084 | -1.56331 | 18475 ft | 395 kts | 326° |
| 2026-05-05 21:06 | 52.97402 | -1.58720 | 18306 ft | 392 kts | 326° |
| 2026-05-05 21:06 | 52.99722 | -1.61113 | 18120 ft | 391 kts | 326° |
| 2026-05-05 21:06 | 53.02025 | -1.63494 | 18047 ft | 389 kts | 326° |
| 2026-05-05 21:06 | 53.04318 | -1.65862 | 18052 ft | 388 kts | 327° |
| 2026-05-05 21:07 | 53.06736 | -1.67844 | 17919 ft | 383 kts | 336° |
| 2026-05-05 21:07 | 53.09215 | -1.69366 | 17601 ft | 374 kts | 338° |
| 2026-05-05 21:07 | 53.11639 | -1.70848 | 17123 ft | 368 kts | 338° |
| 2026-05-05 21:07 | 53.14022 | -1.72314 | 16637 ft | 363 kts | 337° |
| 2026-05-05 21:08 | 53.16378 | -1.73774 | 16159 ft | 358 kts | 338° |
| 2026-05-05 21:08 | 53.18699 | -1.75218 | 15669 ft | 354 kts | 338° |
| 2026-05-05 21:08 | 53.21002 | -1.76657 | 15165 ft | 351 kts | 337° |
| 2026-05-05 21:08 | 53.23043 | -1.77930 | 14730 ft | 349 kts | 338° |
| 2026-05-05 21:09 | 53.25307 | -1.79345 | 14237 ft | 346 kts | 337° |
| 2026-05-05 21:09 | 53.27562 | -1.80754 | 13724 ft | 344 kts | 337° |
| 2026-05-05 21:09 | 53.29791 | -1.82148 | 13198 ft | 341 kts | 338° |
| 2026-05-05 21:09 | 53.32000 | -1.83532 | 12701 ft | 337 kts | 338° |
| 2026-05-05 21:10 | 53.34182 | -1.84901 | 12204 ft | 334 kts | 338° |
| 2026-05-05 21:10 | 53.36351 | -1.86261 | 11688 ft | 330 kts | 338° |
| 2026-05-05 21:10 | 53.38497 | -1.87609 | 11175 ft | 328 kts | 339° |
| 2026-05-05 21:10 | 53.40623 | -1.88942 | 10742 ft | 324 kts | 339° |
| 2026-05-05 21:11 | 53.42687 | -1.90239 | 10617 ft | 310 kts | 339° |
| 2026-05-05 21:11 | 53.44663 | -1.91482 | 10501 ft | 297 kts | 338° |
| 2026-05-05 21:11 | 53.46562 | -1.92677 | 10375 ft | 285 kts | 338° |
| 2026-05-05 21:11 | 53.48387 | -1.93820 | 10247 ft | 275 kts | 340° |
| 2026-05-05 21:12 | 53.50259 | -1.94408 | 10178 ft | 277 kts | 359° |
| 2026-05-05 21:12 | 53.52154 | -1.93861 | 10065 ft | 279 kts | 19° |
| 2026-05-05 21:12 | 53.53854 | -1.92196 | 9551 ft | 290 kts | 41° |
| 2026-05-05 21:12 | 53.55157 | -1.89635 | 9207 ft | 287 kts | 49° |
| 2026-05-05 21:13 | 53.56398 | -1.87022 | 8750 ft | 286 kts | 47° |
| 2026-05-05 21:13 | 53.57638 | -1.84439 | 8147 ft | 280 kts | 47° |
| 2026-05-05 21:13 | 53.58865 | -1.81893 | 7449 ft | 282 kts | 48° |
| 2026-05-05 21:13 | 53.60078 | -1.79378 | 7105 ft | 278 kts | 47° |
| 2026-05-05 21:14 | 53.61290 | -1.76859 | 6691 ft | 277 kts | 47° |
| 2026-05-05 21:14 | 53.62472 | -1.74399 | 6264 ft | 274 kts | 48° |
| 2026-05-05 21:14 | 53.63653 | -1.71930 | 5527 ft | 267 kts | 48° |
| 2026-05-05 21:14 | 53.64816 | -1.69498 | 4898 ft | 268 kts | 49° |
| 2026-05-05 21:15 | 53.65991 | -1.67039 | 4367 ft | 269 kts | 50° |
| 2026-05-05 21:15 | 53.67165 | -1.64578 | 3871 ft | 270 kts | 50° |
| 2026-05-05 21:15 | 53.68332 | -1.62132 | 3578 ft | 261 kts | 50° |
| 2026-05-05 21:15 | 53.69435 | -1.59819 | 3521 ft | 244 kts | 51° |
| 2026-05-05 21:16 | 53.70465 | -1.57653 | 3447 ft | 230 kts | 51° |
| 2026-05-05 21:16 | 53.71440 | -1.55599 | 3365 ft | 218 kts | 50° |
| 2026-05-05 21:16 | 53.72368 | -1.53682 | 3287 ft | 203 kts | 45° |
| 2026-05-05 21:16 | 53.73442 | -1.52283 | 3179 ft | 189 kts | 28° |
| 2026-05-05 21:17 | 53.74636 | -1.51568 | 3092 ft | 174 kts | 12° |
| 2026-05-05 21:17 | 53.75786 | -1.51476 | 3029 ft | 158 kts | 358° |
| 2026-05-05 21:17 | 53.76809 | -1.51860 | 3018 ft | 147 kts | 346° |
| 2026-05-05 21:17 | 53.77723 | -1.52612 | 2918 ft | 146 kts | 334° |
| 2026-05-05 21:18 | 53.78509 | -1.53675 | 2790 ft | 146 kts | 325° |
| 2026-05-05 21:18 | 53.79241 | -1.54797 | 2596 ft | 137 kts | 326° |
| 2026-05-05 21:18 | 53.79932 | -1.55854 | 2422 ft | 134 kts | 326° |
| 2026-05-05 21:18 | 53.80624 | -1.56910 | 2212 ft | 136 kts | 327° |
| 2026-05-05 21:19 | 53.81330 | -1.57989 | 2035 ft | 137 kts | 326° |
| 2026-05-05 21:19 | 53.82033 | -1.59066 | 1835 ft | 136 kts | 326° |
| 2026-05-05 21:19 | 53.82731 | -1.60135 | 1649 ft | 135 kts | 325° |
| 2026-05-05 21:19 | 53.83434 | -1.61173 | 1509 ft | 132 kts | 326° |
| 2026-05-05 21:20 | 53.84129 | -1.62220 | 1281 ft | 133 kts | 321° |
| 2026-05-05 21:20 | 53.84797 | -1.63306 | 1041 ft | 132 kts | 321° |
| 2026-05-05 21:20 | 53.85466 | -1.64349 | 852 ft | 131 kts | 320° |
| 2026-05-05 21:20 | 53.85917 | -1.65029 | 751 ft | 129 kts | 323° |
| 2026-05-05 21:21 | 53.86558 | -1.66006 | 667 ft | 100 kts | 315° |
| 2026-05-05 21:21 | 53.86884 | -1.66506 | 671 ft | 47 kts | 317° |
| 2026-05-05 21:21 | 53.87101 | -1.66832 | 681 ft | 16 kts | 317° |